Morgan Ray — WDF6085 — position and weather

sailwx.info

Track history (hours):
 
Tides and Currents Weather Stations Pressure Air Temp Water Temp Dewpoint Dewpoint Depression Visibility Wind Speed Wind Dir Waves Ship Positions

Morgan Ray

Owner: Daigle Towing Service LLC., Belle Chasse, LA. More information available from US FCC via Universal Licensing System and Coast Guard Vessel Documentation Center.

Last reported at 2016-May-04 09:33 UTC. Time now 2016-May-04 09:50 UTC.
Position N 29°54' W 090°05'.

Length 20 m; draft 2 m.

Type: Tug. MMSI: 367470470.

Date/timePositionNaut miles runAvg speedWind from/ knotsBaromVisibWave heightAir tempDewpointWater temp
2016-May-04 09:33N 29°54' W 090°05'0 0.0
2016-May-04 08:33N 29°54' W 090°05'0 0.0
2016-May-04 07:33N 29°54' W 090°05'0 0.0
2016-May-04 06:33N 29°54' W 090°05'0 0.0
2016-May-04 05:33N 29°54' W 090°05'0 0.0
2016-May-04 04:33N 29°54' W 090°05'0 0.0
2016-May-04 03:33N 29°54' W 090°05'0 0.0
2016-May-04 02:33N 29°54' W 090°05'0 0.0
2016-May-04 01:33N 29°54' W 090°05'0 0.0
2016-May-04 00:33N 29°54' W 090°05'0 0.0
2016-May-03 23:33N 29°54' W 090°05'0 0.0
2016-May-03 22:33N 29°54' W 090°05'0 0.0
2016-May-03 21:33N 29°54' W 090°05'0 0.0
2016-May-03 20:33N 29°54' W 090°05'4 4.1
2016-May-03 19:32N 29°50' W 090°04'1 1.2
2016-May-03 18:33N 29°50' W 090°03'0 0.0
2016-May-03 17:33N 29°50' W 090°03'0 0.0
2016-May-03 16:33N 29°50' W 090°03'2 2.4
2016-May-03 15:33N 29°52' W 090°04'2 1.8
2016-May-03 14:32N 29°54' W 090°05'0 0.0
2016-May-03 13:33N 29°54' W 090°05'0 0.0
2016-May-03 12:33N 29°54' W 090°05'0 0.0
2016-May-03 11:33N 29°54' W 090°05'0 0.0
2016-May-03 10:33N 29°54' W 090°05'0 0.0
2016-May-03 09:33N 29°54' W 090°05'0 0.0
2016-May-03 08:33N 29°54' W 090°05'0 0.0
2016-May-03 07:33N 29°54' W 090°05'0 0.0
2016-May-03 06:33N 29°54' W 090°05'0 0.0
2016-May-03 05:33N 29°54' W 090°05'0 0.0
2016-May-03 04:33N 29°54' W 090°05'0 0.0
2016-May-03 03:33N 29°54' W 090°05'0 0.0
2016-May-03 02:33N 29°54' W 090°05'0 0.0
2016-May-03 01:34N 29°54' W 090°05'0 0.0
2016-May-03 00:33N 29°54' W 090°05'0 0.0
2016-May-02 23:33N 29°54' W 090°05'0 0.0
2016-May-02 22:33N 29°54' W 090°05'0 0.0
2016-May-02 21:34N 29°54' W 090°05'0 0.0
2016-May-02 17:24N 29°54' W 090°05'0 0.0
2016-May-02 16:33N 29°54' W 090°05'0 0.0
2016-May-02 15:32N 29°54' W 090°05'0 0.0
2016-May-02 14:33N 29°54' W 090°05'0 0.0
2016-May-02 13:33N 29°54' W 090°05'0 0.0
2016-May-02 12:33N 29°54' W 090°05'0 0.0
2016-May-02 11:33N 29°54' W 090°05'0 0.0
2016-May-02 10:33N 29°54' W 090°05'0 0.0
2016-May-02 09:33N 29°54' W 090°05'0 0.0
2016-May-02 08:33N 29°54' W 090°05'0 0.0
2016-May-02 07:33N 29°54' W 090°05'0 0.0
2016-May-02 06:33N 29°54' W 090°05'0 0.0
2016-May-02 05:33N 29°54' W 090°05'0 0.0
2016-May-02 04:33N 29°54' W 090°05'0 0.0
2016-May-02 03:33N 29°54' W 090°05'0 0.0
2016-May-02 02:33N 29°54' W 090°05'0 0.0
2016-May-02 01:33N 29°54' W 090°05'0 0.0
2016-May-02 00:33N 29°54' W 090°05'0 0.0
2016-May-01 23:33N 29°54' W 090°05'0 0.0
2016-May-01 22:33N 29°54' W 090°05'0 0.0
2016-May-01 21:33N 29°54' W 090°05'4 3.6
2016-May-01 20:33N 29°50' W 090°04'5 5.1
2016-May-01 19:33N 29°54' W 089°59'1 1.0
2016-May-01 18:12N 29°55' W 089°58'0 0.0
2016-May-01 17:31N 29°55' W 089°58'5 5.0
2016-May-01 16:33N 29°56' W 090°04'6 0.6
2016-May-01 07:27N 29°56' W 090°10'3 2.9
2016-May-01 06:33N 29°55' W 090°08'4 4.4
2016-May-01 05:33N 29°57' W 090°03'4 4.2
2016-May-01 04:33N 29°56' W 089°59'2 1.8
2016-May-01 03:22N 29°55' W 089°56'2 2.5
2016-May-01 02:32N 29°55' W 089°59'7 6.7
2016-May-01 01:33N 29°50' W 090°04'5 4.5
2016-May-01 00:33N 29°54' W 090°05'0 0.0
2016-Apr-30 23:33N 29°54' W 090°05'0 0.0
2016-Apr-30 22:33N 29°54' W 090°05'0 0.0
2016-Apr-30 21:33N 29°54' W 090°05'0 0.0
2016-Apr-30 20:33N 29°54' W 090°05'0 0.0
2016-Apr-30 19:26N 29°54' W 090°05'0 0.0
2016-Apr-30 18:33N 29°54' W 090°05'0 0.0
2016-Apr-30 17:33N 29°54' W 090°05'0 0.0
2016-Apr-30 16:33N 29°54' W 090°05'0 0.0
2016-Apr-30 15:33N 29°54' W 090°05'0 0.0
2016-Apr-30 14:33N 29°54' W 090°05'0 0.0
2016-Apr-30 13:33N 29°54' W 090°05'0 0.0
2016-Apr-30 12:33N 29°54' W 090°05'0 0.0
2016-Apr-30 11:33N 29°54' W 090°05'0 0.0
2016-Apr-30 10:33N 29°54' W 090°05'0 0.0
2016-Apr-30 09:34N 29°54' W 090°05'0 0.0
2016-Apr-30 08:33N 29°54' W 090°05'0 0.0
2016-Apr-30 07:33N 29°54' W 090°05'0 0.0
2016-Apr-30 06:33N 29°54' W 090°05'0 0.0
2016-Apr-30 05:33N 29°54' W 090°05'0 0.0
2016-Apr-30 04:33N 29°54' W 090°05'0 0.0
2016-Apr-30 03:33N 29°54' W 090°05'4 4.2
2016-Apr-30 02:33N 29°50' W 090°02'6 5.7
2016-Apr-30 01:33N 29°55' W 089°58'2 1.9
2016-Apr-30 00:33N 29°56' W 089°60'5 2.4
2016-Apr-29 22:24N 29°52' W 089°56'2 2.6
2016-Apr-29 21:33N 29°52' W 089°59'  
2016-Apr-27 00:22N 29°50' W 089°60'6 6.6
2016-Apr-26 23:29N 29°54' W 089°54'3 2.3
2016-Apr-26 22:07N 29°55' W 089°58'1 0.8
2016-Apr-26 21:26N 29°55' W 089°58'1 1.3
2016-Apr-26 20:33N 29°54' W 089°59'5 5.0
2016-Apr-26 19:33N 29°50' W 090°03'1 0.7
2016-Apr-26 18:26N 29°50' W 090°04'4 4.4
2016-Apr-26 17:33N 29°54' W 090°05'0 0.0
2016-Apr-26 16:33N 29°54' W 090°05'0 0.0
2016-Apr-26 15:33N 29°54' W 090°05'0 0.0
2016-Apr-26 14:33N 29°54' W 090°05'0 0.0
2016-Apr-26 13:31N 29°54' W 090°05'0 0.0
2016-Apr-26 12:33N 29°54' W 090°05'0 0.0
2016-Apr-26 11:33N 29°54' W 090°05'0 0.0
2016-Apr-26 10:33N 29°54' W 090°05'0 0.0
2016-Apr-26 09:33N 29°54' W 090°05'0 0.0
2016-Apr-26 08:33N 29°54' W 090°05'0 0.0
2016-Apr-26 07:33N 29°54' W 090°05'0 0.0
2016-Apr-26 06:33N 29°54' W 090°05'0 0.0
2016-Apr-26 05:34N 29°54' W 090°05'0 0.0
2016-Apr-26 04:33N 29°54' W 090°05'0 0.0
2016-Apr-26 03:33N 29°54' W 090°05'0 0.0
2016-Apr-26 02:33N 29°54' W 090°05'0 0.0
2016-Apr-26 01:33N 29°54' W 090°05'0 0.0
2016-Apr-26 00:33N 29°54' W 090°05'0 0.0
2016-Apr-25 23:33N 29°54' W 090°05'0 0.0
2016-Apr-25 22:33N 29°54' W 090°05'0 0.0
2016-Apr-25 21:33N 29°54' W 090°05'0 0.0
2016-Apr-25 20:33N 29°54' W 090°05'0 0.0
2016-Apr-25 19:33N 29°54' W 090°05'0 0.0
2016-Apr-25 18:33N 29°54' W 090°05'0 0.0
2016-Apr-25 17:33N 29°54' W 090°05'0 0.0
2016-Apr-25 16:33N 29°54' W 090°05'0 0.0
2016-Apr-25 15:33N 29°54' W 090°05'0 0.0
2016-Apr-25 14:33N 29°54' W 090°05'0 0.0
2016-Apr-25 13:33N 29°54' W 090°05'0 0.0
2016-Apr-25 12:33N 29°54' W 090°05'0 0.0
2016-Apr-25 11:33N 29°54' W 090°05'0 0.0
2016-Apr-25 10:33N 29°54' W 090°05'0 0.0
2016-Apr-25 09:33N 29°54' W 090°05'0 0.0
2016-Apr-25 08:33N 29°54' W 090°05'0 0.0
2016-Apr-25 07:30N 29°54' W 090°05'0 0.0
2016-Apr-25 06:33N 29°54' W 090°05'0 0.0
2016-Apr-25 05:33N 29°54' W 090°05'0 0.0
2016-Apr-25 04:33N 29°54' W 090°05'0 0.0
2016-Apr-25 03:33N 29°54' W 090°05'0 0.0
2016-Apr-25 02:33N 29°54' W 090°05'0 0.0
2016-Apr-25 01:33N 29°54' W 090°05'0 0.0
2016-Apr-25 00:33N 29°54' W 090°05'0 0.0
2016-Apr-24 23:33N 29°54' W 090°05'0 0.0
2016-Apr-24 22:33N 29°54' W 090°05'0 0.0
2016-Apr-24 21:33N 29°54' W 090°05'0 0.0
2016-Apr-24 20:33N 29°54' W 090°05'0 0.0
2016-Apr-24 19:33N 29°54' W 090°05'0 0.0
2016-Apr-24 18:33N 29°54' W 090°05'0 0.0
2016-Apr-24 17:33N 29°54' W 090°05'0 0.0
2016-Apr-24 16:33N 29°54' W 090°05'0 0.0
2016-Apr-24 15:33N 29°54' W 090°05'0 0.0
2016-Apr-24 14:34N 29°54' W 090°05'0 0.0
2016-Apr-24 13:33N 29°54' W 090°05'0 0.0
2016-Apr-24 12:33N 29°54' W 090°05'0 0.0
2016-Apr-24 11:33N 29°54' W 090°05'0 0.0
2016-Apr-24 10:33N 29°54' W 090°05'0 0.0
2016-Apr-24 09:33N 29°54' W 090°05'  
Track history (hours):
 
Tides and Currents Weather Stations Pressure Air Temp Water Temp Dewpoint Dewpoint Depression Visibility Wind Speed Wind Dir Waves Ship Positions

Morgan Ray

Owner: Daigle Towing Service LLC., Belle Chasse, LA. More information available from US FCC via Universal Licensing System and Coast Guard Vessel Documentation Center.

Last reported at 2016-May-04 09:33 UTC. Time now 2016-May-04 09:50 UTC.
Position N 29°54' W 090°05'.

Length 20 m; draft 2 m.

Type: Tug. MMSI: 367470470.

Date/timePositionNaut miles runAvg speedWind from/ knotsBaromVisibWave heightAir tempDewpointWater temp
2016-May-04 09:33N 29°54' W 090°05'0 0.0
2016-May-04 08:33N 29°54' W 090°05'0 0.0
2016-May-04 07:33N 29°54' W 090°05'0 0.0
2016-May-04 06:33N 29°54' W 090°05'0 0.0
2016-May-04 05:33N 29°54' W 090°05'0 0.0
2016-May-04 04:33N 29°54' W 090°05'0 0.0
2016-May-04 03:33N 29°54' W 090°05'0 0.0
2016-May-04 02:33N 29°54' W 090°05'0 0.0
2016-May-04 01:33N 29°54' W 090°05'0 0.0
2016-May-04 00:33N 29°54' W 090°05'0 0.0
2016-May-03 23:33N 29°54' W 090°05'0 0.0
2016-May-03 22:33N 29°54' W 090°05'0 0.0
2016-May-03 21:33N 29°54' W 090°05'0 0.0
2016-May-03 20:33N 29°54' W 090°05'4 4.1
2016-May-03 19:32N 29°50' W 090°04'1 1.2
2016-May-03 18:33N 29°50' W 090°03'0 0.0
2016-May-03 17:33N 29°50' W 090°03'0 0.0
2016-May-03 16:33N 29°50' W 090°03'2 2.4
2016-May-03 15:33N 29°52' W 090°04'2 1.8
2016-May-03 14:32N 29°54' W 090°05'0 0.0
2016-May-03 13:33N 29°54' W 090°05'0 0.0
2016-May-03 12:33N 29°54' W 090°05'0 0.0
2016-May-03 11:33N 29°54' W 090°05'0 0.0
2016-May-03 10:33N 29°54' W 090°05'0 0.0
2016-May-03 09:33N 29°54' W 090°05'0 0.0
2016-May-03 08:33N 29°54' W 090°05'0 0.0
2016-May-03 07:33N 29°54' W 090°05'0 0.0
2016-May-03 06:33N 29°54' W 090°05'0 0.0
2016-May-03 05:33N 29°54' W 090°05'0 0.0
2016-May-03 04:33N 29°54' W 090°05'0 0.0
2016-May-03 03:33N 29°54' W 090°05'0 0.0
2016-May-03 02:33N 29°54' W 090°05'0 0.0
2016-May-03 01:34N 29°54' W 090°05'0 0.0
2016-May-03 00:33N 29°54' W 090°05'0 0.0
2016-May-02 23:33N 29°54' W 090°05'0 0.0
2016-May-02 22:33N 29°54' W 090°05'0 0.0
2016-May-02 21:34N 29°54' W 090°05'0 0.0
2016-May-02 17:24N 29°54' W 090°05'0 0.0
2016-May-02 16:33N 29°54' W 090°05'0 0.0
2016-May-02 15:32N 29°54' W 090°05'0 0.0
2016-May-02 14:33N 29°54' W 090°05'0 0.0
2016-May-02 13:33N 29°54' W 090°05'0 0.0
2016-May-02 12:33N 29°54' W 090°05'0 0.0
2016-May-02 11:33N 29°54' W 090°05'0 0.0
2016-May-02 10:33N 29°54' W 090°05'0 0.0
2016-May-02 09:33N 29°54' W 090°05'0 0.0
2016-May-02 08:33N 29°54' W 090°05'0 0.0
2016-May-02 07:33N 29°54' W 090°05'0 0.0
2016-May-02 06:33N 29°54' W 090°05'0 0.0
2016-May-02 05:33N 29°54' W 090°05'0 0.0
2016-May-02 04:33N 29°54' W 090°05'0 0.0
2016-May-02 03:33N 29°54' W 090°05'0 0.0
2016-May-02 02:33N 29°54' W 090°05'0 0.0
2016-May-02 01:33N 29°54' W 090°05'0 0.0
2016-May-02 00:33N 29°54' W 090°05'0 0.0
2016-May-01 23:33N 29°54' W 090°05'0 0.0
2016-May-01 22:33N 29°54' W 090°05'0 0.0
2016-May-01 21:33N 29°54' W 090°05'4 3.6
2016-May-01 20:33N 29°50' W 090°04'5 5.1
2016-May-01 19:33N 29°54' W 089°59'1 1.0
2016-May-01 18:12N 29°55' W 089°58'0 0.0
2016-May-01 17:31N 29°55' W 089°58'5 5.0
2016-May-01 16:33N 29°56' W 090°04'6 0.6
2016-May-01 07:27N 29°56' W 090°10'3 2.9
2016-May-01 06:33N 29°55' W 090°08'4 4.4
2016-May-01 05:33N 29°57' W 090°03'4 4.2
2016-May-01 04:33N 29°56' W 089°59'2 1.8
2016-May-01 03:22N 29°55' W 089°56'2 2.5
2016-May-01 02:32N 29°55' W 089°59'7 6.7
2016-May-01 01:33N 29°50' W 090°04'5 4.5
2016-May-01 00:33N 29°54' W 090°05'0 0.0
2016-Apr-30 23:33N 29°54' W 090°05'0 0.0
2016-Apr-30 22:33N 29°54' W 090°05'0 0.0
2016-Apr-30 21:33N 29°54' W 090°05'0 0.0
2016-Apr-30 20:33N 29°54' W 090°05'0 0.0
2016-Apr-30 19:26N 29°54' W 090°05'0 0.0
2016-Apr-30 18:33N 29°54' W 090°05'0 0.0
2016-Apr-30 17:33N 29°54' W 090°05'0 0.0
2016-Apr-30 16:33N 29°54' W 090°05'0 0.0
2016-Apr-30 15:33N 29°54' W 090°05'0 0.0
2016-Apr-30 14:33N 29°54' W 090°05'0 0.0
2016-Apr-30 13:33N 29°54' W 090°05'0 0.0
2016-Apr-30 12:33N 29°54' W 090°05'0 0.0
2016-Apr-30 11:33N 29°54' W 090°05'0 0.0
2016-Apr-30 10:33N 29°54' W 090°05'0 0.0
2016-Apr-30 09:34N 29°54' W 090°05'0 0.0
2016-Apr-30 08:33N 29°54' W 090°05'0 0.0
2016-Apr-30 07:33N 29°54' W 090°05'0 0.0
2016-Apr-30 06:33N 29°54' W 090°05'0 0.0
2016-Apr-30 05:33N 29°54' W 090°05'0 0.0
2016-Apr-30 04:33N 29°54' W 090°05'0 0.0
2016-Apr-30 03:33N 29°54' W 090°05'4 4.2
2016-Apr-30 02:33N 29°50' W 090°02'6 5.7
2016-Apr-30 01:33N 29°55' W 089°58'2 1.9
2016-Apr-30 00:33N 29°56' W 089°60'5 2.4
2016-Apr-29 22:24N 29°52' W 089°56'2 2.6
2016-Apr-29 21:33N 29°52' W 089°59'  
2016-Apr-27 00:22N 29°50' W 089°60'6 6.6
2016-Apr-26 23:29N 29°54' W 089°54'3 2.3
2016-Apr-26 22:07N 29°55' W 089°58'1 0.8
2016-Apr-26 21:26N 29°55' W 089°58'1 1.3
2016-Apr-26 20:33N 29°54' W 089°59'5 5.0
2016-Apr-26 19:33N 29°50' W 090°03'1 0.7
2016-Apr-26 18:26N 29°50' W 090°04'4 4.4
2016-Apr-26 17:33N 29°54' W 090°05'0 0.0
2016-Apr-26 16:33N 29°54' W 090°05'0 0.0
2016-Apr-26 15:33N 29°54' W 090°05'0 0.0
2016-Apr-26 14:33N 29°54' W 090°05'0 0.0
2016-Apr-26 13:31N 29°54' W 090°05'0 0.0
2016-Apr-26 12:33N 29°54' W 090°05'0 0.0
2016-Apr-26 11:33N 29°54' W 090°05'0 0.0
2016-Apr-26 10:33N 29°54' W 090°05'0 0.0
2016-Apr-26 09:33N 29°54' W 090°05'0 0.0
2016-Apr-26 08:33N 29°54' W 090°05'0 0.0
2016-Apr-26 07:33N 29°54' W 090°05'0 0.0
2016-Apr-26 06:33N 29°54' W 090°05'0 0.0
2016-Apr-26 05:34N 29°54' W 090°05'0 0.0
2016-Apr-26 04:33N 29°54' W 090°05'0 0.0
2016-Apr-26 03:33N 29°54' W 090°05'0 0.0
2016-Apr-26 02:33N 29°54' W 090°05'0 0.0
2016-Apr-26 01:33N 29°54' W 090°05'0 0.0
2016-Apr-26 00:33N 29°54' W 090°05'0 0.0
2016-Apr-25 23:33N 29°54' W 090°05'0 0.0
2016-Apr-25 22:33N 29°54' W 090°05'0 0.0
2016-Apr-25 21:33N 29°54' W 090°05'0 0.0
2016-Apr-25 20:33N 29°54' W 090°05'0 0.0
2016-Apr-25 19:33N 29°54' W 090°05'0 0.0
2016-Apr-25 18:33N 29°54' W 090°05'0 0.0
2016-Apr-25 17:33N 29°54' W 090°05'0 0.0
2016-Apr-25 16:33N 29°54' W 090°05'0 0.0
2016-Apr-25 15:33N 29°54' W 090°05'0 0.0
2016-Apr-25 14:33N 29°54' W 090°05'0 0.0
2016-Apr-25 13:33N 29°54' W 090°05'0 0.0
2016-Apr-25 12:33N 29°54' W 090°05'0 0.0
2016-Apr-25 11:33N 29°54' W 090°05'0 0.0
2016-Apr-25 10:33N 29°54' W 090°05'0 0.0
2016-Apr-25 09:33N 29°54' W 090°05'0 0.0
2016-Apr-25 08:33N 29°54' W 090°05'0 0.0
2016-Apr-25 07:30N 29°54' W 090°05'0 0.0
2016-Apr-25 06:33N 29°54' W 090°05'0 0.0
2016-Apr-25 05:33N 29°54' W 090°05'0 0.0
2016-Apr-25 04:33N 29°54' W 090°05'0 0.0
2016-Apr-25 03:33N 29°54' W 090°05'0 0.0
2016-Apr-25 02:33N 29°54' W 090°05'0 0.0
2016-Apr-25 01:33N 29°54' W 090°05'0 0.0
2016-Apr-25 00:33N 29°54' W 090°05'0 0.0
2016-Apr-24 23:33N 29°54' W 090°05'0 0.0
2016-Apr-24 22:33N 29°54' W 090°05'0 0.0
2016-Apr-24 21:33N 29°54' W 090°05'0 0.0
2016-Apr-24 20:33N 29°54' W 090°05'0 0.0
2016-Apr-24 19:33N 29°54' W 090°05'0 0.0
2016-Apr-24 18:33N 29°54' W 090°05'0 0.0
2016-Apr-24 17:33N 29°54' W 090°05'0 0.0
2016-Apr-24 16:33N 29°54' W 090°05'0 0.0
2016-Apr-24 15:33N 29°54' W 090°05'0 0.0
2016-Apr-24 14:34N 29°54' W 090°05'0 0.0
2016-Apr-24 13:33N 29°54' W 090°05'0 0.0
2016-Apr-24 12:33N 29°54' W 090°05'0 0.0
2016-Apr-24 11:33N 29°54' W 090°05'0 0.0
2016-Apr-24 10:33N 29°54' W 090°05'0 0.0
2016-Apr-24 09:33N 29°54' W 090°05'  

Dump ship's entire track history